sensor_id;sensor_type;location;lat;lon;timestamp;temperature;humidity
11609;DHT22;5860;52.018;8.536;2023-04-25T00:02:14;6.50;99.90
11609;DHT22;5860;52.018;8.536;2023-04-25T00:04:41;6.50;99.90
11609;DHT22;5860;52.018;8.536;2023-04-25T00:07:12;6.50;99.90
11609;DHT22;5860;52.018;8.536;2023-04-25T00:09:39;6.50;99.90
11609;DHT22;5860;52.018;8.536;2023-04-25T00:12:06;6.50;99.90
11609;DHT22;5860;52.018;8.536;2023-04-25T00:14:33;6.50;99.90
11609;DHT22;5860;52.018;8.536;2023-04-25T00:17:00;6.40;99.90
11609;DHT22;5860;52.018;8.536;2023-04-25T00:19:27;6.40;99.90
11609;DHT22;5860;52.018;8.536;2023-04-25T00:21:55;6.50;99.90
11609;DHT22;5860;52.018;8.536;2023-04-25T00:24:22;6.30;99.90
11609;DHT22;5860;52.018;8.536;2023-04-25T00:26:49;6.30;99.90
11609;DHT22;5860;52.018;8.536;2023-04-25T00:29:16;6.20;99.90
11609;DHT22;5860;52.018;8.536;2023-04-25T00:31:43;6.30;99.90
11609;DHT22;5860;52.018;8.536;2023-04-25T00:34:10;6.30;99.90
11609;DHT22;5860;52.018;8.536;2023-04-25T00:36:37;6.20;99.90
11609;DHT22;5860;52.018;8.536;2023-04-25T00:39:04;6.20;99.90
11609;DHT22;5860;52.018;8.536;2023-04-25T00:41:32;6.10;99.90
11609;DHT22;5860;52.018;8.536;2023-04-25T00:44:01;6.20;99.90
11609;DHT22;5860;52.018;8.536;2023-04-25T00:46:29;6.10;99.90
11609;DHT22;5860;52.018;8.536;2023-04-25T00:48:57;6.10;99.90
11609;DHT22;5860;52.018;8.536;2023-04-25T00:51:25;6.20;99.90
11609;DHT22;5860;52.018;8.536;2023-04-25T00:53:53;6.20;99.90
11609;DHT22;5860;52.018;8.536;2023-04-25T00:56:21;6.20;99.90
11609;DHT22;5860;52.018;8.536;2023-04-25T00:58:48;6.10;99.90
11609;DHT22;5860;52.018;8.536;2023-04-25T01:01:16;6.10;99.90
11609;DHT22;5860;52.018;8.536;2023-04-25T01:03:46;6.10;99.90
11609;DHT22;5860;52.018;8.536;2023-04-25T01:06:13;6.10;99.90
11609;DHT22;5860;52.018;8.536;2023-04-25T01:08:40;6.20;99.90
11609;DHT22;5860;52.018;8.536;2023-04-25T01:11:07;6.20;99.90
11609;DHT22;5860;52.018;8.536;2023-04-25T01:13:35;6.10;99.90
11609;DHT22;5860;52.018;8.536;2023-04-25T01:16:02;6.10;99.90
11609;DHT22;5860;52.018;8.536;2023-04-25T01:18:30;6.20;99.90
11609;DHT22;5860;52.018;8.536;2023-04-25T01:21:02;6.20;99.90
11609;DHT22;5860;52.018;8.536;2023-04-25T01:23:31;6.20;99.90
11609;DHT22;5860;52.018;8.536;2023-04-25T01:26:00;6.20;99.90
11609;DHT22;5860;52.018;8.536;2023-04-25T01:28:30;6.20;99.90
11609;DHT22;5860;52.018;8.536;2023-04-25T01:30:57;6.20;99.90
11609;DHT22;5860;52.018;8.536;2023-04-25T01:33:24;6.20;99.90
11609;DHT22;5860;52.018;8.536;2023-04-25T01:35:51;6.10;99.90
11609;DHT22;5860;52.018;8.536;2023-04-25T01:38:18;6.20;99.90
11609;DHT22;5860;52.018;8.536;2023-04-25T01:40:46;6.20;99.90
11609;DHT22;5860;52.018;8.536;2023-04-25T01:43:16;6.10;99.90
11609;DHT22;5860;52.018;8.536;2023-04-25T01:45:43;6.10;99.90
11609;DHT22;5860;52.018;8.536;2023-04-25T01:48:12;6.10;99.90
11609;DHT22;5860;52.018;8.536;2023-04-25T01:50:41;6.10;99.90
11609;DHT22;5860;52.018;8.536;2023-04-25T01:53:09;6.10;99.90
11609;DHT22;5860;52.018;8.536;2023-04-25T01:55:37;6.10;99.90
11609;DHT22;5860;52.018;8.536;2023-04-25T01:58:04;6.10;99.90
11609;DHT22;5860;52.018;8.536;2023-04-25T02:00:39;6.10;99.90
11609;DHT22;5860;52.018;8.536;2023-04-25T02:03:07;6.10;99.90
11609;DHT22;5860;52.018;8.536;2023-04-25T02:05:36;6.20;99.90
11609;DHT22;5860;52.018;8.536;2023-04-25T02:08:08;6.10;99.90
11609;DHT22;5860;52.018;8.536;2023-04-25T02:10:35;6.20;99.90
11609;DHT22;5860;52.018;8.536;2023-04-25T02:13:03;6.20;99.90
11609;DHT22;5860;52.018;8.536;2023-04-25T02:15:32;6.20;99.90
11609;DHT22;5860;52.018;8.536;2023-04-25T02:17:58;6.30;99.90
11609;DHT22;5860;52.018;8.536;2023-04-25T02:20:28;6.30;99.90
11609;DHT22;5860;52.018;8.536;2023-04-25T02:22:55;6.30;99.90
11609;DHT22;5860;52.018;8.536;2023-04-25T02:25:22;6.30;99.90
11609;DHT22;5860;52.018;8.536;2023-04-25T02:27:49;6.30;99.90
11609;DHT22;5860;52.018;8.536;2023-04-25T02:30:17;6.20;99.90
11609;DHT22;5860;52.018;8.536;2023-04-25T02:32:44;6.20;99.90
11609;DHT22;5860;52.018;8.536;2023-04-25T02:35:11;6.20;99.90
11609;DHT22;5860;52.018;8.536;2023-04-25T02:37:39;6.20;99.90
11609;DHT22;5860;52.018;8.536;2023-04-25T02:40:07;6.20;99.90
11609;DHT22;5860;52.018;8.536;2023-04-25T02:42:34;6.10;99.90
11609;DHT22;5860;52.018;8.536;2023-04-25T02:45:02;6.20;99.90
11609;DHT22;5860;52.018;8.536;2023-04-25T02:47:29;6.20;99.90
11609;DHT22;5860;52.018;8.536;2023-04-25T02:49:57;6.20;99.90
11609;DHT22;5860;52.018;8.536;2023-04-25T02:52:23;6.20;99.90
11609;DHT22;5860;52.018;8.536;2023-04-25T02:54:51;6.20;99.90
11609;DHT22;5860;52.018;8.536;2023-04-25T02:57:18;6.20;99.90
11609;DHT22;5860;52.018;8.536;2023-04-25T02:59:45;6.20;99.90
11609;DHT22;5860;52.018;8.536;2023-04-25T03:02:11;6.20;99.90
11609;DHT22;5860;52.018;8.536;2023-04-25T03:04:38;6.10;99.90
11609;DHT22;5860;52.018;8.536;2023-04-25T03:07:06;6.10;99.90
11609;DHT22;5860;52.018;8.536;2023-04-25T03:09:33;6.20;99.90
11609;DHT22;5860;52.018;8.536;2023-04-25T03:12:00;6.10;99.90
11609;DHT22;5860;52.018;8.536;2023-04-25T03:14:28;6.10;99.90
11609;DHT22;5860;52.018;8.536;2023-04-25T03:16:55;6.10;99.90
11609;DHT22;5860;52.018;8.536;2023-04-25T03:19:22;6.10;99.90
11609;DHT22;5860;52.018;8.536;2023-04-25T03:21:49;6.00;99.90
11609;DHT22;5860;52.018;8.536;2023-04-25T03:24:16;6.00;99.90
11609;DHT22;5860;52.018;8.536;2023-04-25T03:26:43;6.00;99.90
11609;DHT22;5860;52.018;8.536;2023-04-25T03:29:10;6.00;99.90
11609;DHT22;5860;52.018;8.536;2023-04-25T03:31:37;6.00;99.90
11609;DHT22;5860;52.018;8.536;2023-04-25T03:34:04;5.90;99.90
11609;DHT22;5860;52.018;8.536;2023-04-25T03:36:31;5.90;99.90
11609;DHT22;5860;52.018;8.536;2023-04-25T03:38:59;5.90;99.90
11609;DHT22;5860;52.018;8.536;2023-04-25T03:41:26;5.90;99.90
11609;DHT22;5860;52.018;8.536;2023-04-25T03:43:53;6.00;99.90
11609;DHT22;5860;52.018;8.536;2023-04-25T03:46:20;5.90;99.90
11609;DHT22;5860;52.018;8.536;2023-04-25T03:48:47;6.00;99.90
11609;DHT22;5860;52.018;8.536;2023-04-25T03:51:14;5.90;99.90
11609;DHT22;5860;52.018;8.536;2023-04-25T03:53:42;6.00;99.90
11609;DHT22;5860;52.018;8.536;2023-04-25T03:56:09;5.90;99.90
11609;DHT22;5860;52.018;8.536;2023-04-25T03:58:36;5.90;99.90
11609;DHT22;5860;52.018;8.536;2023-04-25T04:01:03;5.90;99.90
11609;DHT22;5860;52.018;8.536;2023-04-25T04:03:35;5.90;99.90
11609;DHT22;5860;52.018;8.536;2023-04-25T04:06:04;5.90;99.90
11609;DHT22;5860;52.018;8.536;2023-04-25T04:08:32;5.90;99.90
11609;DHT22;5860;52.018;8.536;2023-04-25T04:11:00;5.80;99.90
11609;DHT22;5860;52.018;8.536;2023-04-25T04:13:28;5.80;99.90
11609;DHT22;5860;52.018;8.536;2023-04-25T04:15:55;5.80;99.90
11609;DHT22;5860;52.018;8.536;2023-04-25T04:18:22;5.70;99.90
11609;DHT22;5860;52.018;8.536;2023-04-25T04:20:49;5.80;99.90
11609;DHT22;5860;52.018;8.536;2023-04-25T04:23:16;5.80;99.90
11609;DHT22;5860;52.018;8.536;2023-04-25T04:25:43;5.80;99.90
11609;DHT22;5860;52.018;8.536;2023-04-25T04:28:10;5.70;99.90
11609;DHT22;5860;52.018;8.536;2023-04-25T04:30:37;5.80;99.90
11609;DHT22;5860;52.018;8.536;2023-04-25T04:33:05;5.80;99.90
11609;DHT22;5860;52.018;8.536;2023-04-25T04:35:34;5.80;99.90
11609;DHT22;5860;52.018;8.536;2023-04-25T04:38:01;5.80;99.90
11609;DHT22;5860;52.018;8.536;2023-04-25T04:40:27;5.70;99.90
11609;DHT22;5860;52.018;8.536;2023-04-25T04:42:54;5.70;99.90
11609;DHT22;5860;52.018;8.536;2023-04-25T04:45:23;5.80;99.90
11609;DHT22;5860;52.018;8.536;2023-04-25T04:47:50;5.80;99.90
11609;DHT22;5860;52.018;8.536;2023-04-25T04:50:17;5.90;99.90
11609;DHT22;5860;52.018;8.536;2023-04-25T04:52:44;5.80;99.90
11609;DHT22;5860;52.018;8.536;2023-04-25T04:55:12;5.80;99.90
11609;DHT22;5860;52.018;8.536;2023-04-25T04:57:38;5.80;99.90
11609;DHT22;5860;52.018;8.536;2023-04-25T05:00:06;5.80;99.90
11609;DHT22;5860;52.018;8.536;2023-04-25T05:02:40;5.90;99.90
11609;DHT22;5860;52.018;8.536;2023-04-25T05:05:07;5.90;99.90
11609;DHT22;5860;52.018;8.536;2023-04-25T05:07:34;5.90;99.90
11609;DHT22;5860;52.018;8.536;2023-04-25T05:10:01;5.90;99.90
11609;DHT22;5860;52.018;8.536;2023-04-25T05:12:29;5.90;99.90
11609;DHT22;5860;52.018;8.536;2023-04-25T05:14:57;5.90;99.90
11609;DHT22;5860;52.018;8.536;2023-04-25T05:17:23;6.00;99.90
11609;DHT22;5860;52.018;8.536;2023-04-25T05:19:51;6.00;99.90
11609;DHT22;5860;52.018;8.536;2023-04-25T05:22:17;5.90;99.90
11609;DHT22;5860;52.018;8.536;2023-04-25T05:24:45;5.90;99.90
11609;DHT22;5860;52.018;8.536;2023-04-25T05:27:12;6.00;99.90
11609;DHT22;5860;52.018;8.536;2023-04-25T05:29:39;6.10;99.90
11609;DHT22;5860;52.018;8.536;2023-04-25T05:32:06;6.10;99.90
11609;DHT22;5860;52.018;8.536;2023-04-25T05:34:34;6.10;99.90
11609;DHT22;5860;52.018;8.536;2023-04-25T05:37:01;6.20;99.90
11609;DHT22;5860;52.018;8.536;2023-04-25T05:39:28;6.20;99.90
11609;DHT22;5860;52.018;8.536;2023-04-25T05:41:55;6.30;99.90
11609;DHT22;5860;52.018;8.536;2023-04-25T05:44:22;6.40;99.90
11609;DHT22;5860;52.018;8.536;2023-04-25T05:46:49;6.40;99.90
11609;DHT22;5860;52.018;8.536;2023-04-25T05:49:16;6.50;99.90
11609;DHT22;5860;52.018;8.536;2023-04-25T05:51:45;6.60;99.90
11609;DHT22;5860;52.018;8.536;2023-04-25T05:54:12;6.60;99.90
11609;DHT22;5860;52.018;8.536;2023-04-25T05:56:39;6.50;99.90
11609;DHT22;5860;52.018;8.536;2023-04-25T05:59:06;6.50;99.90
11609;DHT22;5860;52.018;8.536;2023-04-25T06:01:33;6.50;99.90
11609;DHT22;5860;52.018;8.536;2023-04-25T06:04:00;6.70;99.90
11609;DHT22;5860;52.018;8.536;2023-04-25T06:06:28;6.60;99.90
11609;DHT22;5860;52.018;8.536;2023-04-25T06:08:55;6.50;99.90
11609;DHT22;5860;52.018;8.536;2023-04-25T06:11:22;6.60;99.90
11609;DHT22;5860;52.018;8.536;2023-04-25T06:13:49;6.60;99.90
11609;DHT22;5860;52.018;8.536;2023-04-25T06:16:17;6.60;99.90
11609;DHT22;5860;52.018;8.536;2023-04-25T06:18:44;6.70;99.90
11609;DHT22;5860;52.018;8.536;2023-04-25T06:21:12;6.70;99.90
11609;DHT22;5860;52.018;8.536;2023-04-25T06:23:39;6.60;99.90
11609;DHT22;5860;52.018;8.536;2023-04-25T06:26:05;6.70;99.90
11609;DHT22;5860;52.018;8.536;2023-04-25T06:28:33;7.00;99.90
11609;DHT22;5860;52.018;8.536;2023-04-25T06:31:00;7.10;99.90
11609;DHT22;5860;52.018;8.536;2023-04-25T06:33:26;7.00;99.90
11609;DHT22;5860;52.018;8.536;2023-04-25T06:35:54;7.10;99.90
11609;DHT22;5860;52.018;8.536;2023-04-25T06:38:21;7.00;99.90
11609;DHT22;5860;52.018;8.536;2023-04-25T06:40:48;6.90;99.90
11609;DHT22;5860;52.018;8.536;2023-04-25T06:43:15;6.90;99.90
11609;DHT22;5860;52.018;8.536;2023-04-25T06:45:42;6.90;99.90
11609;DHT22;5860;52.018;8.536;2023-04-25T06:48:11;6.90;99.90
11609;DHT22;5860;52.018;8.536;2023-04-25T06:50:39;7.10;99.90
11609;DHT22;5860;52.018;8.536;2023-04-25T06:53:06;7.20;99.90
11609;DHT22;5860;52.018;8.536;2023-04-25T06:55:32;7.10;99.90
11609;DHT22;5860;52.018;8.536;2023-04-25T06:58:01;7.20;99.90
11609;DHT22;5860;52.018;8.536;2023-04-25T07:00:28;7.20;99.90
11609;DHT22;5860;52.018;8.536;2023-04-25T07:02:55;7.30;99.90
11609;DHT22;5860;52.018;8.536;2023-04-25T07:05:23;7.60;99.90
11609;DHT22;5860;52.018;8.536;2023-04-25T07:07:50;7.70;99.90
11609;DHT22;5860;52.018;8.536;2023-04-25T07:10:17;7.30;99.90
11609;DHT22;5860;52.018;8.536;2023-04-25T07:12:44;7.50;99.90
11609;DHT22;5860;52.018;8.536;2023-04-25T07:15:10;7.50;99.90
11609;DHT22;5860;52.018;8.536;2023-04-25T07:17:38;7.50;99.90
11609;DHT22;5860;52.018;8.536;2023-04-25T07:20:05;7.50;99.90
11609;DHT22;5860;52.018;8.536;2023-04-25T07:22:33;7.40;99.90
11609;DHT22;5860;52.018;8.536;2023-04-25T07:25:00;7.40;99.90
11609;DHT22;5860;52.018;8.536;2023-04-25T07:27:28;7.50;99.90
11609;DHT22;5860;52.018;8.536;2023-04-25T07:29:55;7.70;99.90
11609;DHT22;5860;52.018;8.536;2023-04-25T07:32:22;7.70;99.90
11609;DHT22;5860;52.018;8.536;2023-04-25T07:34:49;7.90;99.90
11609;DHT22;5860;52.018;8.536;2023-04-25T07:37:17;8.00;99.90
11609;DHT22;5860;52.018;8.536;2023-04-25T07:39:45;8.00;99.90
11609;DHT22;5860;52.018;8.536;2023-04-25T07:42:13;8.20;99.90
11609;DHT22;5860;52.018;8.536;2023-04-25T07:44:40;8.20;99.90
11609;DHT22;5860;52.018;8.536;2023-04-25T07:47:09;7.90;99.90
11609;DHT22;5860;52.018;8.536;2023-04-25T07:49:37;7.90;99.90
11609;DHT22;5860;52.018;8.536;2023-04-25T07:52:05;7.80;99.90
11609;DHT22;5860;52.018;8.536;2023-04-25T07:54:35;7.80;99.90
11609;DHT22;5860;52.018;8.536;2023-04-25T07:57:05;8.00;99.90
11609;DHT22;5860;52.018;8.536;2023-04-25T07:59:36;8.10;99.90
11609;DHT22;5860;52.018;8.536;2023-04-25T08:02:03;8.40;99.90
11609;DHT22;5860;52.018;8.536;2023-04-25T08:04:30;8.70;99.90
11609;DHT22;5860;52.018;8.536;2023-04-25T08:06:58;8.80;99.90
11609;DHT22;5860;52.018;8.536;2023-04-25T08:09:25;9.10;99.90
11609;DHT22;5860;52.018;8.536;2023-04-25T08:11:52;9.30;99.90
11609;DHT22;5860;52.018;8.536;2023-04-25T08:14:19;9.30;99.90
11609;DHT22;5860;52.018;8.536;2023-04-25T08:16:46;9.20;99.90
11609;DHT22;5860;52.018;8.536;2023-04-25T08:19:14;9.20;99.90
11609;DHT22;5860;52.018;8.536;2023-04-25T08:21:41;9.50;99.90
11609;DHT22;5860;52.018;8.536;2023-04-25T08:24:09;9.20;99.90
11609;DHT22;5860;52.018;8.536;2023-04-25T08:26:36;9.60;99.90
11609;DHT22;5860;52.018;8.536;2023-04-25T08:29:04;9.30;99.90
11609;DHT22;5860;52.018;8.536;2023-04-25T08:31:32;9.40;99.90
11609;DHT22;5860;52.018;8.536;2023-04-25T08:33:59;9.10;99.90
11609;DHT22;5860;52.018;8.536;2023-04-25T08:36:26;8.80;99.90
11609;DHT22;5860;52.018;8.536;2023-04-25T08:38:58;8.80;99.90
11609;DHT22;5860;52.018;8.536;2023-04-25T08:41:26;9.10;99.90
11609;DHT22;5860;52.018;8.536;2023-04-25T08:43:56;9.40;99.90
11609;DHT22;5860;52.018;8.536;2023-04-25T08:46:24;9.20;99.90
11609;DHT22;5860;52.018;8.536;2023-04-25T08:48:53;9.50;99.90
11609;DHT22;5860;52.018;8.536;2023-04-25T08:51:24;9.10;99.90
11609;DHT22;5860;52.018;8.536;2023-04-25T08:53:52;9.00;99.90
11609;DHT22;5860;52.018;8.536;2023-04-25T08:56:26;9.20;99.90
11609;DHT22;5860;52.018;8.536;2023-04-25T08:58:55;9.50;99.90
11609;DHT22;5860;52.018;8.536;2023-04-25T09:01:22;8.90;99.90
11609;DHT22;5860;52.018;8.536;2023-04-25T09:03:49;9.20;99.90
11609;DHT22;5860;52.018;8.536;2023-04-25T09:06:18;9.60;99.90
11609;DHT22;5860;52.018;8.536;2023-04-25T09:08:46;9.30;99.90
11609;DHT22;5860;52.018;8.536;2023-04-25T09:11:13;9.10;99.90
11609;DHT22;5860;52.018;8.536;2023-04-25T09:13:41;8.90;99.90
11609;DHT22;5860;52.018;8.536;2023-04-25T09:16:08;8.70;99.90
11609;DHT22;5860;52.018;8.536;2023-04-25T09:18:35;8.80;99.90
11609;DHT22;5860;52.018;8.536;2023-04-25T09:21:08;8.70;99.90
11609;DHT22;5860;52.018;8.536;2023-04-25T09:26:08;9.20;99.90
11609;DHT22;5860;52.018;8.536;2023-04-25T09:28:36;9.00;99.90
11609;DHT22;5860;52.018;8.536;2023-04-25T09:31:04;8.90;99.90
11609;DHT22;5860;52.018;8.536;2023-04-25T09:33:33;8.90;99.90
11609;DHT22;5860;52.018;8.536;2023-04-25T09:38:32;9.40;99.90
11609;DHT22;5860;52.018;8.536;2023-04-25T09:41:08;9.10;99.90
11609;DHT22;5860;52.018;8.536;2023-04-25T09:43:36;9.00;99.90
11609;DHT22;5860;52.018;8.536;2023-04-25T09:46:08;9.00;99.90
11609;DHT22;5860;52.018;8.536;2023-04-25T09:48:36;8.70;99.90
11609;DHT22;5860;52.018;8.536;2023-04-25T09:51:10;8.50;99.90
11609;DHT22;5860;52.018;8.536;2023-04-25T09:53:39;8.40;99.90
11609;DHT22;5860;52.018;8.536;2023-04-25T09:56:09;8.60;99.90
11609;DHT22;5860;52.018;8.536;2023-04-25T09:58:37;9.00;99.90
11609;DHT22;5860;52.018;8.536;2023-04-25T10:01:06;9.00;99.90
11609;DHT22;5860;52.018;8.536;2023-04-25T10:03:38;9.00;99.90
11609;DHT22;5860;52.018;8.536;2023-04-25T10:06:14;8.80;99.90
11609;DHT22;5860;52.018;8.536;2023-04-25T10:08:45;8.50;99.90
11609;DHT22;5860;52.018;8.536;2023-04-25T10:11:18;8.40;99.90
11609;DHT22;5860;52.018;8.536;2023-04-25T10:13:45;8.20;99.90
11609;DHT22;5860;52.018;8.536;2023-04-25T10:16:13;8.20;99.90
11609;DHT22;5860;52.018;8.536;2023-04-25T10:18:40;7.90;99.90
11609;DHT22;5860;52.018;8.536;2023-04-25T10:21:07;7.90;99.90
11609;DHT22;5860;52.018;8.536;2023-04-25T10:23:35;8.00;99.90
11609;DHT22;5860;52.018;8.536;2023-04-25T10:26:03;8.10;99.90
11609;DHT22;5860;52.018;8.536;2023-04-25T10:28:56;8.10;99.90
11609;DHT22;5860;52.018;8.536;2023-04-25T10:31:26;8.20;99.90
11609;DHT22;5860;52.018;8.536;2023-04-25T10:33:54;8.10;99.90
11609;DHT22;5860;52.018;8.536;2023-04-25T10:36:22;8.20;99.90
11609;DHT22;5860;52.018;8.536;2023-04-25T10:38:50;8.30;99.90
11609;DHT22;5860;52.018;8.536;2023-04-25T10:41:18;8.30;99.90
11609;DHT22;5860;52.018;8.536;2023-04-25T10:43:47;8.70;99.90
11609;DHT22;5860;52.018;8.536;2023-04-25T10:46:19;9.10;99.90
11609;DHT22;5860;52.018;8.536;2023-04-25T10:51:29;9.10;99.90
11609;DHT22;5860;52.018;8.536;2023-04-25T10:54:08;9.60;99.90
11609;DHT22;5860;52.018;8.536;2023-04-25T10:56:41;10.40;99.90
11609;DHT22;5860;52.018;8.536;2023-04-25T10:59:11;11.00;99.90
11609;DHT22;5860;52.018;8.536;2023-04-25T11:01:42;11.60;99.90
11609;DHT22;5860;52.018;8.536;2023-04-25T11:04:31;11.00;99.90
11609;DHT22;5860;52.018;8.536;2023-04-25T11:09:34;9.60;99.90
11609;DHT22;5860;52.018;8.536;2023-04-25T11:12:02;9.40;99.90
11609;DHT22;5860;52.018;8.536;2023-04-25T11:14:29;8.90;99.90
11609;DHT22;5860;52.018;8.536;2023-04-25T11:16:59;8.80;99.90
11609;DHT22;5860;52.018;8.536;2023-04-25T11:19:28;8.60;99.90
11609;DHT22;5860;52.018;8.536;2023-04-25T11:21:57;8.80;99.90
11609;DHT22;5860;52.018;8.536;2023-04-25T11:24:31;8.60;99.90
11609;DHT22;5860;52.018;8.536;2023-04-25T11:26:59;8.90;99.90
11609;DHT22;5860;52.018;8.536;2023-04-25T11:29:27;9.00;99.90
11609;DHT22;5860;52.018;8.536;2023-04-25T11:31:55;9.20;99.90
11609;DHT22;5860;52.018;8.536;2023-04-25T11:34:26;9.40;99.90
11609;DHT22;5860;52.018;8.536;2023-04-25T11:36:53;9.40;99.90
11609;DHT22;5860;52.018;8.536;2023-04-25T11:39:21;9.30;99.90
11609;DHT22;5860;52.018;8.536;2023-04-25T11:41:48;9.10;99.90
11609;DHT22;5860;52.018;8.536;2023-04-25T11:44:18;8.90;99.90
11609;DHT22;5860;52.018;8.536;2023-04-25T11:46:46;8.70;99.90
11609;DHT22;5860;52.018;8.536;2023-04-25T11:49:15;8.60;99.90
11609;DHT22;5860;52.018;8.536;2023-04-25T11:51:43;8.30;99.90
11609;DHT22;5860;52.018;8.536;2023-04-25T11:54:11;8.20;99.90
11609;DHT22;5860;52.018;8.536;2023-04-25T11:56:42;7.90;99.90
11609;DHT22;5860;52.018;8.536;2023-04-25T11:59:09;7.80;99.90
11609;DHT22;5860;52.018;8.536;2023-04-25T12:01:40;7.80;99.90
11609;DHT22;5860;52.018;8.536;2023-04-25T12:04:18;7.80;99.90
11609;DHT22;5860;52.018;8.536;2023-04-25T12:06:47;8.00;99.90
11609;DHT22;5860;52.018;8.536;2023-04-25T12:09:20;8.30;99.90
11609;DHT22;5860;52.018;8.536;2023-04-25T12:11:58;8.40;99.90
11609;DHT22;5860;52.018;8.536;2023-04-25T12:14:28;8.80;99.90
11609;DHT22;5860;52.018;8.536;2023-04-25T12:16:58;8.90;99.90
11609;DHT22;5860;52.018;8.536;2023-04-25T12:19:26;9.00;99.90
11609;DHT22;5860;52.018;8.536;2023-04-25T12:21:58;8.90;99.90
11609;DHT22;5860;52.018;8.536;2023-04-25T12:24:27;8.70;99.90
11609;DHT22;5860;52.018;8.536;2023-04-25T12:27:03;8.80;99.90
11609;DHT22;5860;52.018;8.536;2023-04-25T12:29:32;8.90;99.90
11609;DHT22;5860;52.018;8.536;2023-04-25T12:32:14;8.80;99.90
11609;DHT22;5860;52.018;8.536;2023-04-25T12:34:42;8.70;99.90
11609;DHT22;5860;52.018;8.536;2023-04-25T12:37:10;8.90;99.90
11609;DHT22;5860;52.018;8.536;2023-04-25T12:39:37;9.20;99.90
11609;DHT22;5860;52.018;8.536;2023-04-25T12:42:04;9.30;99.90
11609;DHT22;5860;52.018;8.536;2023-04-25T12:44:35;9.50;99.90
11609;DHT22;5860;52.018;8.536;2023-04-25T12:47:03;9.50;99.90
11609;DHT22;5860;52.018;8.536;2023-04-25T12:49:30;9.20;99.90
11609;DHT22;5860;52.018;8.536;2023-04-25T12:51:57;9.60;99.90
11609;DHT22;5860;52.018;8.536;2023-04-25T12:54:24;9.60;99.90
11609;DHT22;5860;52.018;8.536;2023-04-25T12:56:52;10.00;99.90
11609;DHT22;5860;52.018;8.536;2023-04-25T12:59:19;10.10;99.90
11609;DHT22;5860;52.018;8.536;2023-04-25T13:01:47;10.00;99.90
11609;DHT22;5860;52.018;8.536;2023-04-25T13:04:14;9.70;99.90
11609;DHT22;5860;52.018;8.536;2023-04-25T13:06:43;10.20;99.90
11609;DHT22;5860;52.018;8.536;2023-04-25T13:09:10;10.40;99.90
11609;DHT22;5860;52.018;8.536;2023-04-25T13:11:39;10.40;99.90
11609;DHT22;5860;52.018;8.536;2023-04-25T13:14:07;10.10;99.90
11609;DHT22;5860;52.018;8.536;2023-04-25T13:16:34;10.10;99.90
11609;DHT22;5860;52.018;8.536;2023-04-25T13:19:01;9.90;99.90
11609;DHT22;5860;52.018;8.536;2023-04-25T13:21:32;9.20;99.90
11609;DHT22;5860;52.018;8.536;2023-04-25T13:23:59;7.80;99.90
11609;DHT22;5860;52.018;8.536;2023-04-25T13:26:27;7.10;99.90
11609;DHT22;5860;52.018;8.536;2023-04-25T13:28:54;6.90;99.90
11609;DHT22;5860;52.018;8.536;2023-04-25T13:31:20;6.70;99.90
11609;DHT22;5860;52.018;8.536;2023-04-25T13:33:48;6.50;99.90
11609;DHT22;5860;52.018;8.536;2023-04-25T13:36:16;6.50;99.90
11609;DHT22;5860;52.018;8.536;2023-04-25T13:38:43;6.60;99.90
11609;DHT22;5860;52.018;8.536;2023-04-25T13:41:11;6.80;99.90
11609;DHT22;5860;52.018;8.536;2023-04-25T13:43:45;6.60;99.90
11609;DHT22;5860;52.018;8.536;2023-04-25T13:46:14;7.10;99.90
11609;DHT22;5860;52.018;8.536;2023-04-25T13:49:01;7.80;99.90
11609;DHT22;5860;52.018;8.536;2023-04-25T13:51:38;8.20;99.90
11609;DHT22;5860;52.018;8.536;2023-04-25T13:54:05;8.40;99.90
11609;DHT22;5860;52.018;8.536;2023-04-25T13:56:33;8.40;99.90
11609;DHT22;5860;52.018;8.536;2023-04-25T13:59:00;8.60;99.90
11609;DHT22;5860;52.018;8.536;2023-04-25T14:01:28;8.60;99.90
11609;DHT22;5860;52.018;8.536;2023-04-25T14:03:57;8.70;99.90
11609;DHT22;5860;52.018;8.536;2023-04-25T14:06:24;8.60;99.90
11609;DHT22;5860;52.018;8.536;2023-04-25T14:08:52;8.80;99.90
11609;DHT22;5860;52.018;8.536;2023-04-25T14:11:19;8.60;99.90
11609;DHT22;5860;52.018;8.536;2023-04-25T14:13:46;8.70;99.90
11609;DHT22;5860;52.018;8.536;2023-04-25T14:16:16;8.90;99.90
11609;DHT22;5860;52.018;8.536;2023-04-25T14:18:43;9.10;99.90
11609;DHT22;5860;52.018;8.536;2023-04-25T14:21:10;9.00;99.90
11609;DHT22;5860;52.018;8.536;2023-04-25T14:23:37;9.00;99.90
11609;DHT22;5860;52.018;8.536;2023-04-25T14:26:05;9.10;99.90
11609;DHT22;5860;52.018;8.536;2023-04-25T14:28:32;9.40;99.90
11609;DHT22;5860;52.018;8.536;2023-04-25T14:30:59;9.60;99.90
11609;DHT22;5860;52.018;8.536;2023-04-25T14:33:27;9.40;99.90
11609;DHT22;5860;52.018;8.536;2023-04-25T14:35:54;9.40;99.90
11609;DHT22;5860;52.018;8.536;2023-04-25T14:38:22;9.70;99.90
11609;DHT22;5860;52.018;8.536;2023-04-25T14:40:51;9.60;99.90
11609;DHT22;5860;52.018;8.536;2023-04-25T14:43:18;9.60;99.90
11609;DHT22;5860;52.018;8.536;2023-04-25T14:45:45;9.70;99.90
11609;DHT22;5860;52.018;8.536;2023-04-25T14:48:12;9.90;99.90
11609;DHT22;5860;52.018;8.536;2023-04-25T14:50:39;10.20;99.90
11609;DHT22;5860;52.018;8.536;2023-04-25T14:53:06;10.40;99.90
11609;DHT22;5860;52.018;8.536;2023-04-25T14:55:33;10.20;99.90
11609;DHT22;5860;52.018;8.536;2023-04-25T14:58:00;9.70;99.90
11609;DHT22;5860;52.018;8.536;2023-04-25T15:00:27;9.90;99.90
11609;DHT22;5860;52.018;8.536;2023-04-25T15:02:55;10.00;99.90
11609;DHT22;5860;52.018;8.536;2023-04-25T15:05:23;9.60;99.90
11609;DHT22;5860;52.018;8.536;2023-04-25T15:07:50;9.70;99.90
11609;DHT22;5860;52.018;8.536;2023-04-25T15:10:18;9.50;99.90
11609;DHT22;5860;52.018;8.536;2023-04-25T15:12:47;9.20;99.90
11609;DHT22;5860;52.018;8.536;2023-04-25T15:15:14;9.20;99.90
11609;DHT22;5860;52.018;8.536;2023-04-25T15:17:52;9.20;99.90
11609;DHT22;5860;52.018;8.536;2023-04-25T15:20:23;8.90;99.90
11609;DHT22;5860;52.018;8.536;2023-04-25T15:22:51;8.50;99.90
11609;DHT22;5860;52.018;8.536;2023-04-25T15:25:18;8.30;99.90
11609;DHT22;5860;52.018;8.536;2023-04-25T15:27:46;8.40;99.90
11609;DHT22;5860;52.018;8.536;2023-04-25T15:30:16;8.40;99.90
11609;DHT22;5860;52.018;8.536;2023-04-25T15:32:44;8.30;99.90
11609;DHT22;5860;52.018;8.536;2023-04-25T15:35:11;8.30;99.90
11609;DHT22;5860;52.018;8.536;2023-04-25T15:37:38;8.10;99.90
11609;DHT22;5860;52.018;8.536;2023-04-25T15:40:10;8.20;99.90
11609;DHT22;5860;52.018;8.536;2023-04-25T15:42:41;8.40;99.90
11609;DHT22;5860;52.018;8.536;2023-04-25T15:45:10;8.30;99.90
11609;DHT22;5860;52.018;8.536;2023-04-25T15:47:37;8.30;99.90
11609;DHT22;5860;52.018;8.536;2023-04-25T15:50:06;8.40;99.90
11609;DHT22;5860;52.018;8.536;2023-04-25T15:52:34;8.50;99.90
11609;DHT22;5860;52.018;8.536;2023-04-25T15:55:02;8.20;99.90
11609;DHT22;5860;52.018;8.536;2023-04-25T15:57:34;8.10;99.90
11609;DHT22;5860;52.018;8.536;2023-04-25T16:00:04;8.10;99.90
11609;DHT22;5860;52.018;8.536;2023-04-25T16:02:40;8.10;99.90
11609;DHT22;5860;52.018;8.536;2023-04-25T16:05:08;8.20;99.90
11609;DHT22;5860;52.018;8.536;2023-04-25T16:07:38;8.30;99.90
11609;DHT22;5860;52.018;8.536;2023-04-25T16:10:05;8.20;99.90
11609;DHT22;5860;52.018;8.536;2023-04-25T16:12:33;8.20;99.90
11609;DHT22;5860;52.018;8.536;2023-04-25T16:15:00;8.20;99.90
11609;DHT22;5860;52.018;8.536;2023-04-25T16:17:28;8.10;99.90
11609;DHT22;5860;52.018;8.536;2023-04-25T16:19:56;8.30;99.90